createdAt,value
2018-09-04T00:05:23.919Z,13.82
2018-09-04T00:08:02.616Z,17.90
2018-09-04T00:10:36.494Z,14.27
2018-09-04T00:13:10.288Z,14.85
2018-09-04T00:15:44.067Z,14.32
2018-09-04T00:18:17.933Z,14.02
2018-09-04T00:20:51.670Z,13.40
2018-09-04T00:26:25.111Z,15.07
2018-09-04T00:32:01.533Z,13.40
2018-09-04T00:34:35.344Z,17.75
2018-09-04T00:37:10.024Z,14.82
2018-09-04T00:45:43.059Z,16.02
2018-09-04T00:48:16.742Z,15.07
2018-09-04T00:50:50.514Z,14.30
2018-09-04T00:53:24.275Z,15.52
2018-09-04T00:55:58.215Z,13.30
2018-09-04T01:01:32.456Z,14.95
2018-09-04T01:04:06.533Z,14.87
2018-09-04T01:06:40.447Z,13.50
2018-09-04T01:12:13.864Z,14.25
2018-09-04T01:14:50.436Z,14.82
2018-09-04T01:20:23.450Z,16.20
2018-09-04T01:22:57.248Z,15.15
2018-09-04T01:25:37.599Z,15.23
2018-09-04T01:28:11.465Z,17.12
2018-09-04T01:30:46.146Z,16.20
2018-09-04T01:42:21.081Z,16.70
2018-09-04T01:44:54.947Z,19.27
2018-09-04T01:53:27.834Z,18.12
2018-09-04T01:56:01.495Z,14.30
2018-09-04T01:58:35.282Z,15.82
2018-09-04T02:01:09.138Z,16.62
2018-09-04T02:06:42.447Z,18.17
2018-09-04T02:09:16.112Z,17.65
2018-09-04T02:14:49.826Z,17.50
2018-09-04T02:17:23.613Z,17.60
2018-09-04T02:22:57.352Z,18.33
2018-09-04T02:25:31.235Z,17.50
2018-09-04T02:31:05.862Z,17.58
2018-09-04T02:33:40.265Z,18.67
2018-09-04T02:36:14.178Z,18.17
2018-09-04T02:38:48.741Z,21.00
2018-09-04T02:44:22.808Z,18.58
2018-09-04T02:52:57.246Z,20.83
2018-09-04T02:55:37.664Z,19.05
2018-09-04T03:01:10.869Z,18.67
2018-09-04T03:09:44.067Z,17.98
2018-09-04T03:12:17.900Z,18.62
2018-09-04T03:14:51.675Z,20.70
2018-09-04T03:17:25.374Z,20.08
2018-09-04T03:19:59.232Z,19.73
2018-09-04T03:22:33.032Z,18.08
2018-09-04T03:25:06.836Z,20.02
2018-09-04T03:27:41.223Z,19.30
2018-09-04T03:30:15.120Z,17.92
2018-09-04T03:32:48.940Z,22.45
2018-09-04T03:35:39.375Z,21.33
2018-09-04T03:44:12.332Z,18.65
2018-09-04T03:46:46.746Z,22.02
2018-09-04T03:52:20.850Z,20.27
2018-09-04T03:55:15.257Z,19.30
2018-09-04T03:57:49.114Z,21.17
2018-09-04T04:00:23.653Z,20.90
2018-09-04T04:02:57.461Z,22.10
2018-09-04T04:05:31.172Z,20.50
2018-09-04T04:11:04.705Z,18.37
2018-09-04T04:16:38.251Z,18.40
2018-09-04T04:22:17.432Z,22.05
2018-09-04T04:24:51.223Z,23.38
2018-09-04T04:27:26.956Z,17.92
2018-09-04T04:30:00.585Z,19.98
2018-09-04T04:32:34.441Z,20.10
2018-09-04T04:41:07.214Z,21.52
2018-09-04T04:46:40.904Z,16.30
2018-09-04T04:49:15.302Z,20.25
2018-09-04T04:51:48.925Z,18.67
2018-09-04T04:57:08.831Z,16.10
2018-09-04T04:59:42.669Z,19.42
2018-09-04T05:02:32.569Z,16.10
2018-09-04T05:11:04.944Z,15.98
2018-09-04T05:13:40.489Z,15.68
2018-09-04T05:16:14.956Z,20.35
2018-09-04T05:18:48.810Z,16.27
2018-09-04T05:21:22.440Z,18.08
2018-09-04T05:23:56.248Z,17.00
2018-09-04T05:26:30.048Z,19.02
2018-09-04T05:29:04.160Z,17.90
2018-09-04T05:31:39.805Z,19.55
2018-09-04T05:40:17.321Z,17.37
2018-09-04T05:43:04.856Z,17.02
2018-09-04T05:45:40.419Z,20.88
2018-09-04T05:48:14.221Z,17.77
2018-09-04T05:50:49.056Z,20.20
2018-09-04T05:53:22.727Z,16.50
2018-09-04T05:55:56.527Z,16.70
2018-09-04T05:58:35.416Z,17.17
2018-09-04T06:04:09.647Z,15.38
2018-09-04T06:06:43.444Z,15.90
2018-09-04T06:12:16.959Z,17.10
2018-09-04T06:17:51.232Z,17.02
2018-09-04T06:20:25.018Z,17.05
2018-09-04T06:25:58.164Z,17.67
2018-09-04T06:28:31.927Z,18.95
2018-09-04T06:31:07.293Z,18.58
2018-09-04T06:33:41.081Z,16.35
2018-09-04T06:36:15.077Z,17.70
2018-09-04T06:38:49.752Z,17.33
2018-09-04T06:41:23.552Z,17.77
2018-09-04T06:43:57.358Z,18.48
2018-09-04T06:46:31.160Z,20.10
2018-09-04T06:49:06.601Z,17.90
2018-09-04T06:51:40.593Z,17.70
2018-09-04T06:54:14.505Z,17.02
2018-09-04T06:56:48.244Z,16.25
2018-09-04T06:59:22.978Z,17.15
2018-09-04T07:04:56.012Z,18.02
2018-09-04T07:07:29.731Z,18.08
2018-09-04T07:10:18.777Z,20.25
2018-09-04T07:15:52.186Z,19.58
2018-09-04T07:18:26.097Z,18.50
2018-09-04T07:20:59.927Z,16.98
2018-09-04T07:29:32.770Z,14.13
2018-09-04T07:32:06.536Z,13.90
2018-09-04T07:34:41.140Z,16.77
2018-09-04T07:37:16.540Z,15.45
2018-09-04T07:39:50.293Z,17.08
2018-09-04T07:42:43.109Z,14.20
2018-09-04T07:45:16.894Z,15.30
2018-09-04T07:53:13.434Z,15.32
2018-09-04T07:55:47.285Z,15.45
2018-09-04T07:58:26.189Z,15.90
2018-09-04T08:01:00.046Z,17.33
2018-09-04T08:03:40.103Z,16.65
2018-09-04T08:06:13.945Z,18.33
2018-09-04T08:08:47.769Z,17.10
2018-09-04T08:11:22.453Z,17.58
2018-09-04T08:13:56.369Z,18.02
2018-09-04T08:16:30.215Z,18.67
2018-09-04T08:19:03.892Z,19.58
2018-09-04T08:21:37.701Z,20.10
2018-09-04T08:24:11.497Z,25.17
2018-09-04T08:26:45.319Z,22.15
2018-09-04T08:29:19.124Z,18.12
2018-09-04T08:31:53.653Z,26.40
2018-09-04T08:34:27.414Z,18.10
2018-09-04T08:37:01.242Z,19.00
2018-09-04T08:39:35.097Z,19.87
2018-09-04T08:42:09.704Z,24.37
2018-09-04T08:44:43.430Z,22.77
2018-09-04T08:47:17.166Z,20.27
2018-09-04T08:49:50.862Z,18.80
2018-09-04T08:52:24.728Z,19.90
2018-09-04T08:54:59.251Z,18.20
2018-09-04T08:57:32.951Z,18.33
2018-09-04T09:00:06.802Z,18.63
2018-09-04T09:02:40.592Z,20.03
2018-09-04T09:05:14.380Z,19.70
2018-09-04T09:13:47.702Z,19.23
2018-09-04T09:16:21.489Z,19.30
2018-09-04T09:30:53.258Z,19.73
2018-09-04T09:36:27.672Z,20.13
2018-09-04T09:39:01.462Z,21.33
2018-09-04T09:41:35.207Z,20.83
2018-09-04T09:44:08.880Z,22.10
2018-09-04T09:46:42.661Z,20.03
2018-09-04T09:49:16.555Z,23.33
2018-09-04T09:51:50.471Z,21.47
2018-09-04T09:54:24.258Z,20.20
2018-09-04T09:56:58.089Z,19.67
2018-09-04T09:59:32.102Z,19.70
2018-09-04T10:02:06.510Z,18.97
2018-09-04T10:04:40.263Z,19.20
2018-09-04T10:07:14.033Z,19.13
2018-09-04T10:09:47.892Z,20.50
2018-09-04T10:15:20.904Z,19.40
2018-09-04T10:20:54.934Z,17.60
2018-09-04T10:23:28.806Z,18.63
2018-09-04T10:26:02.506Z,20.00
2018-09-04T10:28:37.081Z,21.90
2018-09-04T10:31:10.774Z,20.43
2018-09-04T10:33:44.644Z,19.17
2018-09-04T10:36:18.551Z,21.77
2018-09-04T10:38:52.297Z,18.73
2018-09-04T10:41:28.954Z,20.73
2018-09-04T10:44:02.650Z,18.47
2018-09-04T10:52:35.046Z,16.03
2018-09-04T10:55:09.611Z,16.00
2018-09-04T10:57:46.358Z,17.23
2018-09-04T11:03:20.498Z,17.27
2018-09-04T11:05:54.293Z,14.93
2018-09-04T11:08:28.953Z,16.80
2018-09-04T11:14:02.756Z,16.90
2018-09-04T11:16:36.545Z,18.97
2018-09-04T11:19:10.273Z,16.20
2018-09-04T11:21:52.581Z,15.30
2018-09-04T11:24:28.191Z,15.27
2018-09-04T11:27:13.887Z,17.50
2018-09-04T11:30:04.278Z,15.00
2018-09-04T11:32:52.803Z,16.27
2018-09-04T11:35:26.687Z,13.97
2018-09-04T11:38:07.378Z,14.50
2018-09-04T11:40:41.368Z,21.53
2018-09-04T11:43:15.069Z,15.27
2018-09-04T11:45:49.572Z,16.13
2018-09-04T11:48:23.444Z,15.37
2018-09-04T11:50:57.213Z,26.23
2018-09-04T11:53:31.671Z,15.60
2018-09-04T11:56:05.570Z,14.30
2018-09-04T11:58:39.323Z,14.70
2018-09-04T12:07:13.003Z,15.73
2018-09-04T12:09:46.766Z,14.47
2018-09-04T12:12:20.475Z,13.60
2018-09-04T12:14:54.283Z,18.40
2018-09-04T12:17:28.776Z,12.50
2018-09-04T12:26:01.556Z,15.50
2018-09-04T12:40:34.256Z,14.30
2018-09-04T12:43:08.053Z,10.53
2018-09-04T12:45:41.896Z,12.10
2018-09-04T12:48:16.595Z,12.43
2018-09-04T12:50:51.093Z,13.63
2018-09-04T12:56:25.533Z,15.80
2018-09-04T13:01:59.225Z,15.40
2018-09-04T13:04:32.955Z,14.23
2018-09-04T13:07:06.743Z,12.07
2018-09-04T13:09:41.194Z,12.70
2018-09-04T13:12:14.980Z,13.50
2018-09-04T13:14:53.849Z,12.87
2018-09-04T13:17:27.595Z,13.07
2018-09-04T13:20:01.475Z,11.90
2018-09-04T13:22:35.335Z,13.00
2018-09-04T13:25:09.074Z,13.17
2018-09-04T13:27:42.868Z,12.90
2018-09-04T13:33:16.093Z,9.47
2018-09-04T13:35:49.708Z,11.37
2018-09-04T13:38:23.652Z,10.13
2018-09-04T13:40:57.419Z,10.13
2018-09-04T13:43:35.793Z,10.70
2018-09-04T13:46:09.447Z,10.30
2018-09-04T13:48:43.359Z,10.67
2018-09-04T13:51:17.163Z,9.83
2018-09-04T13:56:51.075Z,17.63
2018-09-04T13:59:24.786Z,8.80
2018-09-04T14:04:58.181Z,10.90
2018-09-04T14:07:31.831Z,11.93
2018-09-04T14:10:05.652Z,10.50
2018-09-04T14:12:39.301Z,12.90
2018-09-04T14:15:13.072Z,8.90
2018-09-04T14:17:46.795Z,10.60
2018-09-04T14:20:20.644Z,9.37
2018-09-04T14:25:54.997Z,11.50
2018-09-04T14:28:41.492Z,9.57
2018-09-04T14:34:04.265Z,9.57
2018-09-04T14:36:38.325Z,11.83
2018-09-04T14:39:12.025Z,9.73
2018-09-04T14:47:44.696Z,9.67
2018-09-04T14:50:21.450Z,9.20
2018-09-04T14:52:55.895Z,7.50
2018-09-04T14:55:29.667Z,7.93
2018-09-04T14:58:04.396Z,8.70
2018-09-04T15:00:38.272Z,9.40
2018-09-04T15:03:12.052Z,10.47
2018-09-04T15:05:45.824Z,10.43
2018-09-04T15:08:20.484Z,12.47
2018-09-04T15:10:54.179Z,12.67
2018-09-04T15:13:28.914Z,9.07
2018-09-04T15:16:02.610Z,10.40
2018-09-04T15:21:56.040Z,9.90
2018-09-04T15:24:29.745Z,9.70
2018-09-04T15:27:03.473Z,8.23
2018-09-04T15:29:37.373Z,9.77
2018-09-04T15:32:11.241Z,9.20
2018-09-04T15:34:45.715Z,11.73
2018-09-04T15:37:19.375Z,24.50
2018-09-04T15:42:56.281Z,8.73
2018-09-04T15:45:37.575Z,9.90
2018-09-04T15:48:11.244Z,8.80
2018-09-04T15:50:45.040Z,8.80
2018-09-04T15:53:18.780Z,9.30
2018-09-04T15:55:52.629Z,8.90
2018-09-04T15:58:26.476Z,8.97
2018-09-04T16:03:59.495Z,10.37
2018-09-04T16:06:33.404Z,9.40
2018-09-04T16:09:07.230Z,9.43
2018-09-04T16:11:51.989Z,9.10
2018-09-04T16:14:25.917Z,10.40
2018-09-04T16:16:59.617Z,19.27
2018-09-04T16:22:32.696Z,9.80
2018-09-04T16:25:06.468Z,9.73
2018-09-04T16:27:41.089Z,10.07
2018-09-04T16:33:14.864Z,11.37
2018-09-04T16:35:48.630Z,10.70
2018-09-04T16:38:22.540Z,10.30
2018-09-04T16:43:55.620Z,11.33
2018-09-04T16:46:30.305Z,11.03
2018-09-04T16:49:04.997Z,11.10
2018-09-04T16:51:38.603Z,10.97
2018-09-04T16:54:13.246Z,12.30
2018-09-04T16:56:46.905Z,11.63
2018-09-04T16:59:20.893Z,12.40
2018-09-04T17:01:54.777Z,11.70
2018-09-04T17:04:28.484Z,11.37
2018-09-04T17:07:02.281Z,10.53
2018-09-04T17:09:36.984Z,10.80
2018-09-04T17:12:10.776Z,11.10
2018-09-04T17:14:45.401Z,10.80
2018-09-04T17:17:19.049Z,10.93
2018-09-04T17:19:53.713Z,10.60
2018-09-04T17:22:27.408Z,10.77
2018-09-04T17:25:01.235Z,11.13
2018-09-04T17:27:35.719Z,13.47
2018-09-04T17:30:09.507Z,11.67
2018-09-04T17:32:43.302Z,11.53
2018-09-04T17:35:21.052Z,11.33
2018-09-04T17:37:54.969Z,11.57
2018-09-04T17:40:29.351Z,11.10
2018-09-04T17:43:03.092Z,13.00
2018-09-04T17:45:36.894Z,11.70
2018-09-04T17:48:10.669Z,11.77
2018-09-04T17:50:44.463Z,13.43
2018-09-04T17:53:18.315Z,10.60
2018-09-04T17:55:52.179Z,12.50
2018-09-04T17:58:25.778Z,11.43
2018-09-04T18:00:59.596Z,16.77
2018-09-04T18:06:33.273Z,13.93
2018-09-04T18:09:07.072Z,14.40
2018-09-04T18:11:40.864Z,12.90
2018-09-04T18:14:15.370Z,15.53
2018-09-04T18:16:49.243Z,12.00
2018-09-04T18:19:23.049Z,18.30
2018-09-04T18:21:56.916Z,15.80
2018-09-04T18:24:30.868Z,14.27
2018-09-04T18:36:03.707Z,14.20
2018-09-04T18:38:37.516Z,13.60
2018-09-04T18:41:11.474Z,15.30
2018-09-04T18:46:44.516Z,14.40
2018-09-04T18:52:17.988Z,13.80
2018-09-04T18:54:51.911Z,14.60
2018-09-04T18:57:26.540Z,14.70
2018-09-04T19:03:00.156Z,13.57
2018-09-04T19:05:34.204Z,13.53
2018-09-04T19:08:07.908Z,12.90
2018-09-04T19:10:41.697Z,14.98
2018-09-04T19:16:14.805Z,14.32
2018-09-04T19:18:48.488Z,15.60
2018-09-04T19:21:22.116Z,14.10
2018-09-04T19:23:55.870Z,14.25
2018-09-04T19:26:29.580Z,15.10
2018-09-04T19:32:03.441Z,14.93
2018-09-04T19:34:37.238Z,15.18
2018-09-04T19:37:10.924Z,14.40
2018-09-04T19:42:43.818Z,13.70
2018-09-04T19:45:18.391Z,14.95
2018-09-04T19:50:51.260Z,14.27
2018-09-04T19:53:25.704Z,29.08
2018-09-04T19:56:03.308Z,15.90
2018-09-04T19:58:37.124Z,13.10
2018-09-04T20:01:10.966Z,13.10
2018-09-04T20:03:44.779Z,17.08
2018-09-04T20:06:18.687Z,14.95
2018-09-04T20:08:52.437Z,15.77
2018-09-04T20:14:26.424Z,14.57
2018-09-04T20:17:00.226Z,15.65
2018-09-04T20:19:34.086Z,14.27
2018-09-04T20:22:07.980Z,15.98
2018-09-04T20:27:41.496Z,14.30
2018-09-04T20:39:13.842Z,14.13
2018-09-04T20:44:47.872Z,14.70
2018-09-04T20:50:21.544Z,16.58
2018-09-04T20:52:56.236Z,15.93
2018-09-04T20:55:30.043Z,14.38
2018-09-04T21:01:15.519Z,15.32
2018-09-04T21:04:01.118Z,14.63
2018-09-04T21:06:42.233Z,15.43
2018-09-04T21:12:15.045Z,15.35
2018-09-04T21:14:48.960Z,16.52
2018-09-04T21:20:22.933Z,14.30
2018-09-04T21:22:57.323Z,13.32
2018-09-04T21:25:37.892Z,16.92
2018-09-04T21:28:11.784Z,15.85
2018-09-04T21:30:46.134Z,15.57
2018-09-04T21:36:20.264Z,17.73
2018-09-04T21:38:54.121Z,19.60
2018-09-04T21:41:28.459Z,15.32
2018-09-04T21:44:02.233Z,14.10
2018-09-04T21:49:35.720Z,17.17
2018-09-04T21:52:09.476Z,15.25
2018-09-04T21:57:43.199Z,15.35
2018-09-04T22:06:16.127Z,15.25
2018-09-04T22:08:49.848Z,16.37
2018-09-04T22:11:23.569Z,14.82
2018-09-04T22:16:57.143Z,16.83
2018-09-04T22:25:29.432Z,15.30
2018-09-04T22:28:03.304Z,15.98
2018-09-04T22:36:36.336Z,16.35
2018-09-04T22:39:10.135Z,16.33
2018-09-04T22:47:43.176Z,14.95
2018-09-04T22:50:16.971Z,16.05
2018-09-04T22:55:49.891Z,20.15
2018-09-04T23:01:23.556Z,16.10
2018-09-04T23:03:58.000Z,16.40
2018-09-04T23:06:31.830Z,16.00
2018-09-04T23:15:04.681Z,16.73
2018-09-04T23:17:38.460Z,17.20
2018-09-04T23:20:12.331Z,15.85
2018-09-04T23:22:45.943Z,19.17
2018-09-04T23:25:20.469Z,16.73
2018-09-04T23:27:54.218Z,15.32
2018-09-04T23:30:28.017Z,16.42
2018-09-04T23:33:01.861Z,15.00
2018-09-04T23:35:39.025Z,16.95
2018-09-04T23:38:16.732Z,17.05
2018-09-04T23:40:51.197Z,17.80
2018-09-04T23:43:24.936Z,16.67
2018-09-04T23:45:58.700Z,17.65
2018-09-04T23:48:32.497Z,19.08
2018-09-04T23:51:06.207Z,20.08
2018-09-04T23:53:39.848Z,18.55
2018-09-04T23:56:13.657Z,16.37
2018-09-04T23:58:47.505Z,17.10
